Home > Products > Valid Products > TAF

000
FTUS45 KRIW 051126
TAFCOD
TAF
KCOD 051126Z 0512/0612 22008KT P6SM FEW100 BKN250
     FM052000 16010KT P6SM VCSH SCT090 BKN150
     FM060200 22008KT P6SM VCSH SCT060 BKN080
     FM061100 36008KT P6SM VCSH BKN050
      AMD LTD TO CLD VIS AND WIND=



000
FTUS45 KRIW 051126
TAFBPI
TAF
KBPI 051126Z 0512/0612 VRB05KT P6SM SCT080 SCT110
     FM051900 20013G21KT P6SM VCSH SCT070 BKN090
     FM060200 33008KT P6SM SCT080 BKN100
     FM061100 VRB05KT P6SM VCSH BKN080=



000
FTUS45 KRIW 051126
TAFRIW
TAF
KRIW 051126Z 0512/0612 VRB05KT P6SM SCT110 BKN250
     FM052000 15009KT P6SM SCT090 BKN150
     FM060200 30011KT P6SM SCT070 BKN100=



000
FTUS45 KRIW 051126
TAFRKS
TAF
KRKS 051126Z 0512/0612 17008KT P6SM FEW100 BKN200
     FM052000 20014G24KT P6SM SCT080 BKN150
     FM060200 16008KT P6SM SCT070 BKN120=



000
FTUS45 KRIW 051126
TAFLND
TAF
KLND 051126Z 0512/0612 VRB05KT P6SM SCT100 BKN250
     FM052000 18008KT P6SM SCT090 BKN150
     FM060100 24008KT P6SM SCT070 BKN100=



000
FTUS45 KRIW 051126
TAFWRL
TAF
KWRL 051126Z 0512/0612 15006KT P6SM FEW110 BKN250
     FM052000 20008KT P6SM SCT100 BKN200
     FM060400 10007KT P6SM SCT080 BKN100=



000
FTUS45 KRIW 051126
TAFCPR
TAF
KCPR 051126Z 0512/0612 24008KT P6SM FEW100 BKN250
     FM051600 22014G22KT P6SM FEW110
     FM052300 20010KT P6SM SCT110=



000
FTUS45 KRIW 051126
TAFJAC
TAF
KJAC 051126Z 0512/0612 VRB06KT P6SM FEW080 SCT110
     FM051900 19010G20KT P6SM VCSH SCT050 BKN080
     FM060200 02007KT P6SM VCSH SCT040 BKN070
      AMD LTD TO CLD VIS AND WIND=



000
FTUS45 KRIW 050523
TAFCOD
TAF
KCOD 050523Z 0506/0606 22008KT P6SM FEW100
     FM052000 16010KT P6SM VCSH SCT090 BKN150
     FM060200 22008KT P6SM VCSH SCT060 BKN080
      AMD LTD TO CLD VIS AND WIND=



000
FTUS45 KRIW 050523
TAFCPR
TAF
KCPR 050523Z 0506/0606 25009KT P6SM FEW100
     FM051000 22012KT P6SM SCT250
     FM051600 22014G22KT P6SM FEW110
     FM052300 20010KT P6SM SCT110=



000
FTUS45 KRIW 050523
TAFJAC
TAF
KJAC 050523Z 0506/0606 VRB06KT P6SM FEW080 SCT110
     FM051900 19010G20KT P6SM VCSH SCT050 BKN080
     FM060200 02007KT P6SM VCSH SCT040 BKN070
      AMD LTD TO CLD VIS AND WIND=



000
FTUS45 KRIW 050523
TAFBPI
TAF
KBPI 050523Z 0506/0606 32006KT P6SM FEW100
     FM051100 VRB05KT P6SM SCT080 BKN110
     FM051900 20013G21KT P6SM VCSH SCT070 BKN090
     FM060200 33008KT P6SM SCT080 BKN100=



000
FTUS45 KRIW 050523
TAFLND
TAF
KLND 050523Z 0506/0606 24008KT P6SM SCT100
     FM052000 18008KT P6SM SCT090 BKN150
     FM060100 24008KT P6SM SCT070 BKN100=



000
FTUS45 KRIW 050523
TAFRIW
TAF
KRIW 050523Z 0506/0606 21008KT P6SM SCT110
     FM052000 15009KT P6SM SCT090 BKN150
     FM060200 30011KT P6SM SCT070 BKN100=



000
FTUS45 KRIW 050523
TAFWRL
TAF
KWRL 050523Z 0506/0606 15009KT P6SM FEW110
     FM052000 20008KT P6SM SCT100 BKN200
     FM060400 10007KT P6SM SCT080 BKN100=



000
FTUS45 KRIW 050523
TAFRKS
TAF
KRKS 050523Z 0506/0606 17008KT P6SM FEW100
     FM052000 20014G24KT P6SM SCT080 BKN150
     FM060200 16008KT P6SM SCT070 BKN120=



000
FTUS45 KRIW 042331
TAFRIW
TAF
KRIW 042331Z 0500/0524 14007KT P6SM FEW110
     FM050400 30008KT P6SM SCT110
     FM052000 15008KT P6SM SCT090 BKN150=



000
FTUS45 KRIW 042331
TAFBPI
TAF
KBPI 042331Z 0500/0524 23008G15KT P6SM FEW100
     FM050130 32006KT P6SM FEW100
     FM051100 VRB05KT P6SM SCT080 BKN110
     FM052000 20013G21KT P6SM VCSH BKN090=



000
FTUS45 KRIW 042331
TAFCOD
TAF
KCOD 042331Z 0500/0524 20008KT P6SM SCT100
     FM050400 22008KT P6SM FEW100
     FM052000 15009KT P6SM VCSH SCT090 BKN150
      AMD LTD TO CLD VIS AND WIND=



000
FTUS45 KRIW 042331
TAFCPR
TAF
KCPR 042331Z 0500/0524 25009KT P6SM FEW100
     FM051000 22012KT P6SM SCT250
     FM051600 22014G22KT P6SM FEW110
     FM052200 21010KT P6SM SCT110=



000
FTUS45 KRIW 042331
TAFJAC
TAF
KJAC 042331Z 0500/0524 20009KT P6SM SCT100
     FM050130 VRB06KT P6SM FEW080 SCT110
     FM051900 19010G20KT P6SM VCSH SCT050 BKN080
      AMD LTD TO CLD VIS AND WIND=



000
FTUS45 KRIW 042331
TAFWRL
TAF
KWRL 042331Z 0500/0524 VRB06KT P6SM FEW110
     FM052000 20007KT P6SM SCT100 BKN200=



000
FTUS45 KRIW 042331
TAFLND
TAF
KLND 042331Z 0500/0524 17007KT P6SM SCT110
     FM050200 24008KT P6SM SCT100
     FM052000 18008KT P6SM SCT090 BKN150=



000
FTUS45 KRIW 042331
TAFRKS
TAF
KRKS 042331Z 0500/0524 20011KT P6SM FEW110
     FM050300 17008KT P6SM FEW100
     FM052000 19014G24KT P6SM SCT080 BKN150=



000
FTUS45 KRIW 042331
TAFRKS
TAF
KRKS 042331Z 0500/0524 20011KT P6SM FEW110
     FM050300 17008KT P6SM FEW100
     FM052000 19014G24KT P6SM SCT080 BKN150=



000
FTUS45 KRIW 042331
TAFRIW
TAF
KRIW 042331Z 0500/0524 14007KT P6SM FEW110
     FM050400 30008KT P6SM SCT110
     FM052000 15008KT P6SM SCT090 BKN150=



000
FTUS45 KRIW 042331
TAFCOD
TAF
KCOD 042331Z 0500/0524 20008KT P6SM SCT100
     FM050400 22008KT P6SM FEW100
     FM052000 15009KT P6SM VCSH SCT090 BKN150
      AMD LTD TO CLD VIS AND WIND=



000
FTUS45 KRIW 042331
TAFBPI
TAF
KBPI 042331Z 0500/0524 23008G15KT P6SM FEW100
     FM050130 32006KT P6SM FEW100
     FM051100 VRB05KT P6SM SCT080 BKN110
     FM052000 20013G21KT P6SM VCSH BKN090=



000
FTUS45 KRIW 042331
TAFLND
TAF
KLND 042331Z 0500/0524 17007KT P6SM SCT110
     FM050200 24008KT P6SM SCT100
     FM052000 18008KT P6SM SCT090 BKN150=



000
FTUS45 KRIW 042331
TAFJAC
TAF
KJAC 042331Z 0500/0524 20009KT P6SM SCT100
     FM050130 VRB06KT P6SM FEW080 SCT110
     FM051900 19010G20KT P6SM VCSH SCT050 BKN080
      AMD LTD TO CLD VIS AND WIND=



000
FTUS45 KRIW 042331
TAFCPR
TAF
KCPR 042331Z 0500/0524 25009KT P6SM FEW100
     FM051000 22012KT P6SM SCT250
     FM051600 22014G22KT P6SM FEW110
     FM052200 21010KT P6SM SCT110=



000
FTUS45 KRIW 042331
TAFWRL
TAF
KWRL 042331Z 0500/0524 VRB06KT P6SM FEW110
     FM052000 20007KT P6SM SCT100 BKN200=



000
FTUS45 KRIW 042133 AAA
TAFJAC
TAF AMD
KJAC 042133Z 0422/0518 20009G16KT P6SM SCT100
     FM050130 VRB06KT P6SM FEW080 SCT110
      AMD LTD TO CLD VIS AND WIND=



000
FTUS45 KRIW 042133 AAA
TAFJAC
TAF AMD
KJAC 042133Z 0422/0518 20009G16KT P6SM SCT100
     FM050130 VRB06KT P6SM FEW080 SCT110
      AMD LTD TO CLD VIS AND WIND=



000
FTUS45 KRIW 042132 AAA
TAFBPI
TAF AMD
KBPI 042132Z 0422/0518 19010G18KT P6SM FEW100
     FM050130 32006KT P6SM FEW100
     FM051100 VRB05KT P6SM SCT080 BKN110=



000
FTUS45 KRIW 042132 AAA
TAFBPI
TAF AMD
KBPI 042132Z 0422/0518 19010G18KT P6SM FEW100
     FM050130 32006KT P6SM FEW100
     FM051100 VRB05KT P6SM SCT080 BKN110=



000
FTUS45 KRIW 041728
TAFRKS
TAF
KRKS 041728Z 0418/0518 17006KT P6SM SKC
     FM042000 20011KT P6SM FEW110
     FM050300 17008KT P6SM FEW100=



000
FTUS45 KRIW 041728
TAFJAC
TAF
KJAC 041728Z 0418/0518 20007KT P6SM SCT100
     FM050200 VRB06KT P6SM FEW080 SCT110
      AMD LTD TO CLD VIS AND WIND=



000
FTUS45 KRIW 041728
TAFBPI
TAF
KBPI 041728Z 0418/0518 18006KT P6SM SCT250
     FM042000 22010KT P6SM SCT100
     FM050300 VRB06KT P6SM FEW080
     FM051100 VRB05KT P6SM SCT080 BKN110=



000
FTUS45 KRIW 041728
TAFWRL
TAF
KWRL 041728Z 0418/0518 VRB05KT P6SM FEW110=



000
FTUS45 KRIW 041728
TAFCOD
TAF
KCOD 041728Z 0418/0518 22007KT P6SM SCT250
     FM041900 14008KT P6SM SCT100
     FM050400 22008KT P6SM FEW100
      AMD LTD TO CLD VIS AND WIND=



000
FTUS45 KRIW 041728
TAFRIW
TAF
KRIW 041728Z 0418/0518 14007KT P6SM FEW110
     FM050400 30008KT P6SM SCT110=



000
FTUS45 KRIW 041728
TAFCPR
TAF
KCPR 041728Z 0418/0518 22012G17KT P6SM FEW100
     FM050200 19008KT P6SM FEW100
     FM051000 22012KT P6SM SCT250
     FM051600 22014G20KT P6SM FEW110=



000
FTUS45 KRIW 041728
TAFLND
TAF
KLND 041728Z 0418/0518 17007KT P6SM SCT110
     FM050200 24008KT P6SM SCT100=



000
FTUS45 KRIW 041126
TAFRKS
TAF
KRKS 041126Z 0412/0512 17007KT P6SM SKC
     FM042000 20011KT P6SM FEW110
     FM050300 17008KT P6SM FEW100=



000
FTUS45 KRIW 041126
TAFRIW
TAF
KRIW 041126Z 0412/0512 31008KT P6SM SKC
     FM041600 19007KT P6SM FEW110
     FM050400 30008KT P6SM FEW100=



000
FTUS45 KRIW 041126
TAFCPR
TAF
KCPR 041126Z 0412/0512 24008KT P6SM SKC
     FM041500 22012KT P6SM FEW100
     FM050200 19008KT P6SM FEW100
     FM051000 23012KT P6SM SCT250=



000
FTUS45 KRIW 041126
TAFWRL
TAF
KWRL 041126Z 0412/0512 VRB05KT P6SM SKC
     FM042100 21007KT P6SM FEW100=



000
FTUS45 KRIW 041126
TAFLND
TAF
KLND 041126Z 0412/0512 VRB05KT P6SM SKC
     FM042000 18007KT P6SM SCT110
     FM050200 24008KT P6SM SCT100=



000
FTUS45 KRIW 041126
TAFBPI
TAF
KBPI 041126Z 0412/0512 VRB06KT P6SM SCT250
     FM041900 22010KT P6SM SCT100
     FM050300 VRB06KT P6SM FEW080
     FM051100 VRB05KT P6SM SCT080 BKN110=



000
FTUS45 KRIW 041126
TAFJAC
TAF
KJAC 041126Z 0412/0512 VRB05KT P6SM SCT250
     FM042000 20008KT P6SM SCT100
     FM050200 VRB06KT P6SM FEW080
     FM051000 VRB05KT P6SM SCT080 BKN110
      AMD LTD TO CLD VIS AND WIND=



000
FTUS45 KRIW 041126
TAFCOD
TAF
KCOD 041126Z 0412/0512 VRB05KT P6SM SCT250
     FM041900 14008KT P6SM SCT100
     FM050400 22008KT P6SM FEW100
      AMD LTD TO CLD VIS AND WIND=



000
FTUS45 KRIW 041126
TAFRKS
TAF
KRKS 041126Z 0412/0512 17007KT P6SM SKC
     FM042000 20011KT P6SM FEW110
     FM050300 17008KT P6SM FEW100=



000
FTUS45 KRIW 041126
TAFRIW
TAF
KRIW 041126Z 0412/0512 31008KT P6SM SKC
     FM041600 19007KT P6SM FEW110
     FM050400 30008KT P6SM FEW100=



000
FTUS45 KRIW 041126
TAFWRL
TAF
KWRL 041126Z 0412/0512 VRB05KT P6SM SKC
     FM042100 21007KT P6SM FEW100=



000
FTUS45 KRIW 041126
TAFCPR
TAF
KCPR 041126Z 0412/0512 24008KT P6SM SKC
     FM041500 22012KT P6SM FEW100
     FM050200 19008KT P6SM FEW100
     FM051000 23012KT P6SM SCT250=



000
FTUS45 KRIW 041126
TAFJAC
TAF
KJAC 041126Z 0412/0512 VRB05KT P6SM SCT250
     FM042000 20008KT P6SM SCT100
     FM050200 VRB06KT P6SM FEW080
     FM051000 VRB05KT P6SM SCT080 BKN110
      AMD LTD TO CLD VIS AND WIND=



000
FTUS45 KRIW 041126
TAFBPI
TAF
KBPI 041126Z 0412/0512 VRB06KT P6SM SCT250
     FM041900 22010KT P6SM SCT100
     FM050300 VRB06KT P6SM FEW080
     FM051100 VRB05KT P6SM SCT080 BKN110=



000
FTUS45 KRIW 041126
TAFLND
TAF
KLND 041126Z 0412/0512 VRB05KT P6SM SKC
     FM042000 18007KT P6SM SCT110
     FM050200 24008KT P6SM SCT100=



000
FTUS45 KRIW 041126
TAFCOD
TAF
KCOD 041126Z 0412/0512 VRB05KT P6SM SCT250
     FM041900 14008KT P6SM SCT100
     FM050400 22008KT P6SM FEW100
      AMD LTD TO CLD VIS AND WIND=



000
FTUS45 KRIW 040520
TAFRKS
TAF
KRKS 040520Z 0406/0506 18006KT P6SM SKC
     FM042000 23012KT P6SM FEW110
     FM050300 18008KT P6SM FEW100=



000
FTUS45 KRIW 040520
TAFBPI
TAF
KBPI 040520Z 0406/0506 VRB06KT P6SM FEW080
     FM041900 22010KT P6SM SCT100
     FM050300 VRB06KT P6SM FEW080=



000
FTUS45 KRIW 040520
TAFCPR
TAF
KCPR 040520Z 0406/0506 VRB06KT P6SM SKC
     FM041500 22012KT P6SM FEW100
     FM050300 18007KT P6SM FEW100=



000
FTUS45 KRIW 040520
TAFJAC
TAF
KJAC 040520Z 0406/0506 36006KT P6SM SKC
     FM042000 20008KT P6SM SCT100
     FM050200 VRB06KT P6SM FEW080
      AMD LTD TO CLD VIS AND WIND=



000
FTUS45 KRIW 040520
TAFRIW
TAF
KRIW 040520Z 0406/0506 VRB06KT P6SM SKC
     FM042100 23008KT P6SM FEW110
     FM050200 VRB06KT P6SM FEW100=



000
FTUS45 KRIW 040520
TAFWRL
TAF
KWRL 040520Z 0406/0506 15007KT P6SM SKC
     FM042100 24007KT P6SM FEW100=



000
FTUS45 KRIW 040520
TAFCOD
TAF
KCOD 040520Z 0406/0506 19007KT P6SM SKC
     FM042000 15007KT P6SM SCT100
     FM050400 22008KT P6SM FEW100
      AMD LTD TO CLD VIS AND WIND=



000
FTUS45 KRIW 040520
TAFLND
TAF
KLND 040520Z 0406/0506 VRB05KT P6SM SKC
     FM042000 18007KT P6SM SCT110
     FM050200 24008KT P6SM SCT100=



000
FTUS45 KRIW 032337
TAFLND
TAF
KLND 032337Z 0400/0424 VRB06KT P6SM SKC
     FM040200 24006KT P6SM SKC
     FM042100 23008KT P6SM FEW110=



000
FTUS45 KRIW 032337
TAFCOD
TAF
KCOD 032337Z 0400/0424 12007KT P6SM FEW080
     FM040200 23008KT P6SM SKC
     FM042000 15007KT P6SM FEW100
      AMD LTD TO CLD VIS AND WIND=



000
FTUS45 KRIW 032337
TAFJAC
TAF
KJAC 032337Z 0400/0424 VRB06KT P6SM FEW080
     FM040400 36006KT P6SM SKC
     FM042000 20008KT P6SM FEW100
      AMD LTD TO CLD VIS AND WIND=



000
FTUS45 KRIW 032337
TAFBPI
TAF
KBPI 032337Z 0400/0424 VRB06KT P6SM FEW080
     FM042000 22010KT P6SM SCT100=



000
FTUS45 KRIW 032337
TAFCPR
TAF
KCPR 032337Z 0400/0424 29008KT P6SM FEW090
     FM040200 VRB06KT P6SM SKC
     FM041400 22012KT P6SM FEW100=



000
FTUS45 KRIW 032337
TAFRIW
TAF
KRIW 032337Z 0400/0424 VRB06KT P6SM SKC
     FM042200 23008KT P6SM FEW110=



000
FTUS45 KRIW 032337
TAFRKS
TAF
KRKS 032337Z 0400/0424 25006KT P6SM SKC
     FM042000 25012KT P6SM FEW110=



000
FTUS45 KRIW 032337
TAFWRL
TAF
KWRL 032337Z 0400/0424 VRB05KT P6SM SKC=



000
FTUS45 KRIW 031720
TAFJAC
TAF
KJAC 031720Z 0318/0418 VRB06KT P6SM FEW080
     FM040400 36006KT P6SM SKC
      AMD LTD TO CLD VIS AND WIND=



000
FTUS45 KRIW 031720
TAFWRL
TAF
KWRL 031720Z 0318/0418 VRB05KT P6SM SKC=



000
FTUS45 KRIW 031720
TAFBPI
TAF
KBPI 031720Z 0318/0418 VRB06KT P6SM FEW090=



000
FTUS45 KRIW 031720
TAFCOD
TAF
KCOD 031720Z 0318/0418 15006KT P6SM FEW090
     FM040300 21006KT P6SM SKC
      AMD LTD TO CLD VIS AND WIND=



000
FTUS45 KRIW 031720
TAFRKS
TAF
KRKS 031720Z 0318/0418 26006KT P6SM SKC=



000
FTUS45 KRIW 031720
TAFCPR
TAF
KCPR 031720Z 0318/0418 25008KT P6SM SKC
     FM032000 29008KT P6SM FEW090
     FM040200 VRB06KT P6SM SKC
     FM041400 22012KT P6SM FEW100=



000
FTUS45 KRIW 031720
TAFLND
TAF
KLND 031720Z 0318/0418 VRB06KT P6SM SKC
     FM040200 24006KT P6SM SKC=



000
FTUS45 KRIW 031720
TAFRIW
TAF
KRIW 031720Z 0318/0418 VRB05KT P6SM SKC=



000
FTUS45 KRIW 031120
TAFBPI
TAF
KBPI 031120Z 0312/0412 VRB05KT P6SM SKC
     FM032100 28008KT P6SM SCT070
     FM040400 VRB05KT P6SM SKC=



000
FTUS45 KRIW 031120
TAFCPR
TAF
KCPR 031120Z 0312/0412 25008KT P6SM SKC
     FM032000 29008KT P6SM FEW080
     FM040200 VRB04KT P6SM SKC
     FM040600 24005KT P6SM SKC=



000
FTUS45 KRIW 031120
TAFRIW
TAF
KRIW 031120Z 0312/0412 26007KT P6SM SKC
     FM031600 VRB05KT P6SM SKC
     FM032100 VRB05KT P6SM FEW080
     FM040200 29006KT P6SM SKC=



000
FTUS45 KRIW 031120
TAFJAC
TAF
KJAC 031120Z 0312/0412 VRB04KT P6SM SKC
     FM031800 19006KT P6SM SKC
     FM032000 18008KT P6SM SCT070
     FM040400 36006KT P6SM SKC
      AMD LTD TO CLD VIS AND WIND=



000
FTUS45 KRIW 031120
TAFCOD
TAF
KCOD 031120Z 0312/0412 21007KT P6SM SKC
     FM031700 12007KT P6SM FEW080
     FM040300 21006KT P6SM SKC
      AMD LTD TO CLD VIS AND WIND=



000
FTUS45 KRIW 031120
TAFLND
TAF
KLND 031120Z 0312/0412 VRB05KT P6SM SKC
     FM032000 VRB05KT P6SM FEW080
     FM040200 24006KT P6SM SKC=



000
FTUS45 KRIW 031120
TAFRKS
TAF
KRKS 031120Z 0312/0412 VRB05KT P6SM SKC
     FM032000 VRB05KT P6SM FEW070
     FM040200 17006KT P6SM SKC=



000
FTUS45 KRIW 031120
TAFWRL
TAF
KWRL 031120Z 0312/0412 VRB05KT P6SM SKC
     FM032100 VRB05KT P6SM FEW080
     FM040200 16006KT P6SM SKC=



000
FTUS45 KRIW 030532
TAFBPI
TAF
KBPI 030532Z 0306/0406 VRB05KT P6SM SKC
     FM032100 28008KT P6SM SCT070
     FM040400 VRB05KT P6SM SKC=



000
FTUS45 KRIW 030532
TAFLND
TAF
KLND 030532Z 0306/0406 VRB05KT P6SM SKC
     FM032000 VRB05KT P6SM FEW080
     FM040200 24006KT P6SM SKC=



000
FTUS45 KRIW 030532
TAFJAC
TAF
KJAC 030532Z 0306/0406 36006KT P6SM SKC
     FM031800 19006KT P6SM SKC
     FM032000 18008KT P6SM SCT070
     FM040400 36006KT P6SM SKC
      AMD LTD TO CLD VIS AND WIND=



000
FTUS45 KRIW 030532
TAFCPR
TAF
KCPR 030532Z 0306/0406 VRB05KT P6SM SCT250
     FM030900 25007KT P6SM SKC
     FM032000 29008KT P6SM FEW080
     FM040200 VRB04KT P6SM SKC=



000
FTUS45 KRIW 030532
TAFRKS
TAF
KRKS 030532Z 0306/0406 VRB05KT P6SM SCT250
     FM031000 VRB05KT P6SM SKC
     FM032000 VRB05KT P6SM FEW070
     FM040200 17006KT P6SM SKC=



000
FTUS45 KRIW 030532
TAFRIW
TAF
KRIW 030532Z 0306/0406 25006KT P6SM SKC
     FM031600 VRB05KT P6SM SKC
     FM032100 VRB05KT P6SM FEW080
     FM040200 29006KT P6SM SKC=



000
FTUS45 KRIW 030532
TAFCOD
TAF
KCOD 030532Z 0306/0406 20007KT P6SM SKC
     FM031700 12007KT P6SM FEW080
     FM040300 21006KT P6SM SKC
      AMD LTD TO CLD VIS AND WIND=



000
FTUS45 KRIW 030532
TAFWRL
TAF
KWRL 030532Z 0306/0406 17006KT P6SM SKC
     FM031300 VRB05KT P6SM SKC
     FM032100 VRB05KT P6SM FEW080
     FM040200 16006KT P6SM SKC=



000
FTUS45 KRIW 022325
TAFWRL
TAF
KWRL 022325Z 0300/0324 36008KT P6SM BKN250
     FM030500 VRB05KT P6SM SCT250=



000
FTUS45 KRIW 022325
TAFLND
TAF
KLND 022325Z 0300/0324 VRB05KT P6SM BKN250
     FM030500 VRB05KT P6SM SKC
     FM032000 VRB05KT P6SM FEW080=



000
FTUS45 KRIW 022325
TAFBPI
TAF
KBPI 022325Z 0300/0324 VRB05KT P6SM SCT250
     FM030800 VRB05KT P6SM SKC
     FM032100 28008KT P6SM SCT080=



000
FTUS45 KRIW 022325
TAFCPR
TAF
KCPR 022325Z 0300/0324 36008KT P6SM FEW080 BKN250
     FM030900 25007KT P6SM SKC=



000
FTUS45 KRIW 022325
TAFLND
TAF
KLND 022325Z 0300/0324 VRB05KT P6SM BKN250
     FM030500 VRB05KT P6SM SKC
     FM032000 VRB05KT P6SM FEW080=



000
FTUS45 KRIW 022325
TAFRIW
TAF
KRIW 022325Z 0300/0324 04006KT P6SM SCT080 BKN250
     FM030500 30006KT P6SM SKC
     FM031700 VRB05KT P6SM SKC=



000
FTUS45 KRIW 022325
TAFCOD
TAF
KCOD 022325Z 0300/0324 02010KT P6SM BKN250
     FM030400 22006KT P6SM SCT250
     FM031700 12006KT P6SM SKC
      AMD LTD TO CLD VIS AND WIND=



000
FTUS45 KRIW 022325
TAFJAC
TAF
KJAC 022325Z 0300/0324 36006KT P6SM SCT250
     FM031600 19006KT P6SM SKC
     FM032000 18008KT P6SM SCT070
      AMD LTD TO CLD VIS AND WIND=



000
FTUS45 KRIW 022325
TAFBPI
TAF
KBPI 022325Z 0300/0324 VRB05KT P6SM SCT250
     FM030800 VRB05KT P6SM SKC
     FM032100 28008KT P6SM SCT080=



000
FTUS45 KRIW 022325
TAFCPR
TAF
KCPR 022325Z 0300/0324 36008KT P6SM FEW080 BKN250
     FM030900 25007KT P6SM SKC=



000
FTUS45 KRIW 022325
TAFJAC
TAF
KJAC 022325Z 0300/0324 36006KT P6SM SCT250
     FM031600 19006KT P6SM SKC
     FM032000 18008KT P6SM SCT070
      AMD LTD TO CLD VIS AND WIND=



000
FTUS45 KRIW 022325
TAFRKS
TAF
KRKS 022325Z 0300/0324 36006KT P6SM SCT250
     FM030500 08009KT P6SM SCT250
     FM031400 VRB05KT P6SM SKC=



000
FTUS45 KRIW 022325
TAFWRL
TAF
KWRL 022325Z 0300/0324 36008KT P6SM BKN250
     FM030500 VRB05KT P6SM SCT250=



000
FTUS45 KRIW 022325
TAFCOD
TAF
KCOD 022325Z 0300/0324 02010KT P6SM BKN250
     FM030400 22006KT P6SM SCT250
     FM031700 12006KT P6SM SKC
      AMD LTD TO CLD VIS AND WIND=



000
FTUS45 KRIW 022325
TAFRKS
TAF
KRKS 022325Z 0300/0324 36006KT P6SM SCT250
     FM030500 08009KT P6SM SCT250
     FM031400 VRB05KT P6SM SKC=



000
FTUS45 KRIW 022325
TAFRIW
TAF
KRIW 022325Z 0300/0324 04006KT P6SM SCT080 BKN250
     FM030500 30006KT P6SM SKC
     FM031700 VRB05KT P6SM SKC=



000
FTUS45 KRIW 021835 AAA
TAFCPR
TAF AMD
KCPR 021835Z 0219/0318 27012G20KT P6SM BKN250
     FM022000 31010KT P6SM SCT080 BKN250
     FM030000 36008KT P6SM SCT080 BKN250
     FM030900 25007KT P6SM SKC=



000
FTUS45 KRIW 021722
TAFBPI
TAF
KBPI 021722Z 0218/0318 VRB05KT P6SM SCT250
     FM022100 VRB05KT P6SM FEW070 BKN250
     FM030200 VRB05KT P6SM BKN250
     FM030800 VRB05KT P6SM SKC=



000
FTUS45 KRIW 021722
TAFCOD
TAF
KCOD 021722Z 0218/0318 VRB05KT P6SM BKN250
     FM021930 02010KT P6SM SCT080 BKN250
     FM030500 22006KT P6SM SCT250
     FM031700 12006KT P6SM SKC
      AMD LTD TO CLD VIS AND WIND=



000
FTUS45 KRIW 021722
TAFRIW
TAF
KRIW 021722Z 0218/0318 26006KT P6SM SCT250
     FM022100 01009KT P6SM SCT080 BKN250
     FM030500 30006KT P6SM SKC
     FM031700 VRB05KT P6SM SKC=



000
FTUS45 KRIW 021722
TAFRKS
TAF
KRKS 021722Z 0218/0318 VRB05KT P6SM SCT250
     FM022100 36006KT P6SM FEW070 BKN250
     FM030500 08009KT P6SM BKN250
     FM031600 VRB05KT P6SM SKC=



000
FTUS45 KRIW 021722
TAFJAC
TAF
KJAC 021722Z 0218/0318 VRB04KT P6SM SCT250
     FM022100 30006KT P6SM FEW060 BKN250
     FM030300 36006KT P6SM BKN250
     FM031600 19006KT P6SM SKC
      AMD LTD TO CLD VIS AND WIND=



000
FTUS45 KRIW 021722
TAFCPR
TAF
KCPR 021722Z 0218/0318 23011KT P6SM BKN250
     FM022000 31010KT P6SM SCT080 BKN250
     FM030000 36008KT P6SM SCT080 BKN250
     FM030900 25007KT P6SM SKC=



000
FTUS45 KRIW 021722
TAFWRL
TAF
KWRL 021722Z 0218/0318 VRB05KT P6SM SCT250
     FM022000 35009KT P6SM FEW080 BKN250
     FM030500 VRB05KT P6SM SCT250=



000
FTUS45 KRIW 021722
TAFLND
TAF
KLND 021722Z 0218/0318 VRB05KT P6SM SCT250
     FM022100 VRB05KT P6SM SCT080 BKN250
     FM030500 VRB05KT P6SM SKC=



    US Dept of Commerce
    National Oceanic and Atmospheric Administration
    National Weather Service
    1325 East West Highway
    Silver Spring, MD 20910
    Page Author: NWS Internet Services Team
Disclaimer
Information Quality
Credits
Glossary
Privacy Policy
Freedom of Information Act (FOIA)
About Us
Career Opportunities